X  Schlie├čen METAR Luftfahrt Wetterdaten     EDNY Friedrichshafen Airport
Temperatur
5°C Temperatur
5°C Taupunkt
100% Feuchtigkeit



Wind
24 KM/S
15 MPS
7 M/S
13 KTS



260°
W
Aktuelle Wetterlage

Leicht  Regen Leicht Regen
Luftdruck 1009.82 (hPa) - 29.82 (inHg)
Sichtweite 6 (Meile) - 9.7 (Km)
Flughafen
Flughafen Code EDNY

Position : Friedrichshafen Airport
Entfernung: 40 (Km)

Metar:
EDNY 171050Z 26013KT 240V310 9999 -RA BKN012 OVC017 05/05 Q1010 RERA

Zeit: 17-04-2024 12:50 CEST